H160 KOAK-KSFO
Flight info
| Callsign | H160 |
|---|---|
| Flight time | 0h -25m |
| Altitude | 3000 |
| Route | OAK |
| Aircraft | H160/L-SBDGRY/S |
Departure
| Time | 2026-05-06 19:38 |
|---|---|
| Airport | San Francisco Bay Oakland International Airport (KOAK) |
Arrival
| Time | 2026-05-06 19:13 |
|---|---|
| Airport | San Francisco International Airport (KSFO) |
| Time | Latitude | Longitude | Altitude | Speed | Heading |
|---|---|---|---|---|---|
| 2026-05-06 19:12 | 37.72930 | -122.21208 | 5 ft | 0 kts | 304° |
| 2026-05-06 19:17 | 37.72938 | -122.21230 | 12 ft | 8 kts | 291° |
| 2026-05-06 19:18 | 37.72989 | -122.21354 | 43 ft | 24 kts | 291° |
| 2026-05-06 19:18 | 37.73095 | -122.21607 | 121 ft | 40 kts | 268° |
| 2026-05-06 19:18 | 37.73236 | -122.22053 | 201 ft | 73 kts | 284° |
| 2026-05-06 19:18 | 37.73326 | -122.22751 | 260 ft | 85 kts | 255° |
| 2026-05-06 19:19 | 37.73099 | -122.23442 | 411 ft | 86 kts | 242° |
| 2026-05-06 19:19 | 37.72746 | -122.24034 | 407 ft | 83 kts | 226° |
| 2026-05-06 19:19 | 37.72251 | -122.24526 | 375 ft | 106 kts | 212° |
| 2026-05-06 19:19 | 37.71486 | -122.24971 | 433 ft | 134 kts | 207° |
| 2026-05-06 19:20 | 37.70749 | -122.25798 | 458 ft | 150 kts | 230° |
| 2026-05-06 19:20 | 37.70080 | -122.26851 | 472 ft | 157 kts | 233° |
| 2026-05-06 19:20 | 37.69391 | -122.27961 | 480 ft | 162 kts | 233° |
| 2026-05-06 19:20 | 37.68719 | -122.29069 | 505 ft | 153 kts | 233° |
| 2026-05-06 19:21 | 37.68104 | -122.30119 | 496 ft | 146 kts | 233° |
| 2026-05-06 19:21 | 37.67504 | -122.31123 | 480 ft | 142 kts | 235° |
| 2026-05-06 19:21 | 37.66871 | -122.32074 | 476 ft | 141 kts | 234° |
| 2026-05-06 19:21 | 37.66245 | -122.32986 | 483 ft | 138 kts | 234° |
| 2026-05-06 19:22 | 37.65617 | -122.33887 | 481 ft | 136 kts | 233° |
| 2026-05-06 19:22 | 37.65006 | -122.34783 | 457 ft | 133 kts | 234° |
| 2026-05-06 19:22 | 37.64426 | -122.35679 | 358 ft | 130 kts | 236° |
| 2026-05-06 19:22 | 37.63884 | -122.36576 | 302 ft | 127 kts | 237° |
| 2026-05-06 19:23 | 37.63465 | -122.37535 | 268 ft | 124 kts | 253° |
| 2026-05-06 19:23 | 37.63315 | -122.38564 | 312 ft | 106 kts | 273° |
| 2026-05-06 19:23 | 37.63425 | -122.39421 | 427 ft | 97 kts | 288° |
| 2026-05-06 19:23 | 37.63569 | -122.40282 | 349 ft | 102 kts | 293° |
| 2026-05-06 19:24 | 37.64124 | -122.40703 | 139 ft | 110 kts | 21° |
| 2026-05-06 19:24 | 37.64695 | -122.40611 | 203 ft | 84 kts | 349° |
| 2026-05-06 19:24 | 37.65301 | -122.40681 | 129 ft | 85 kts | 352° |
| 2026-05-06 19:24 | 37.65824 | -122.40529 | 144 ft | 75 kts | 18° |
| 2026-05-06 19:25 | 37.66203 | -122.40062 | 127 ft | 79 kts | 60° |
| 2026-05-06 19:25 | 37.66559 | -122.39630 | 94 ft | 65 kts | 32° |
| 2026-05-06 19:25 | 37.66895 | -122.39340 | 116 ft | 55 kts | 38° |
| 2026-05-06 19:25 | 37.67190 | -122.39137 | 132 ft | 41 kts | 20° |
| 2026-05-06 19:26 | 37.67375 | -122.39069 | 130 ft | 3 kts | 38° |
| 2026-05-06 19:26 | 37.67523 | -122.39103 | 289 ft | 56 kts | 349° |
| 2026-05-06 19:26 | 37.68027 | -122.39369 | 183 ft | 96 kts | 342° |
| 2026-05-06 19:26 | 37.68590 | -122.39815 | 190 ft | 97 kts | 311° |
| 2026-05-06 19:27 | 37.69057 | -122.40353 | 182 ft | 84 kts | 334° |
| 2026-05-06 19:27 | 37.69575 | -122.40587 | 215 ft | 77 kts | 340° |
| 2026-05-06 19:27 | 37.70078 | -122.40778 | 183 ft | 74 kts | 343° |
| 2026-05-06 19:27 | 37.70559 | -122.40611 | 196 ft | 67 kts | 20° |
| 2026-05-06 19:28 | 37.70947 | -122.40340 | 206 ft | 65 kts | 26° |
| 2026-05-06 19:28 | 37.71359 | -122.40062 | 231 ft | 68 kts | 22° |
| 2026-05-06 19:28 | 37.71796 | -122.39939 | 249 ft | 69 kts | 350° |
| 2026-05-06 19:28 | 37.72291 | -122.40073 | 189 ft | 78 kts | 341° |
| 2026-05-06 19:29 | 37.72821 | -122.40267 | 179 ft | 76 kts | 342° |
| 2026-05-06 19:29 | 37.73294 | -122.40472 | 223 ft | 73 kts | 354° |
| 2026-05-06 19:29 | 37.73757 | -122.40198 | 212 ft | 83 kts | 38° |
| 2026-05-06 19:29 | 37.74159 | -122.39674 | 203 ft | 84 kts | 33° |
| 2026-05-06 19:30 | 37.74699 | -122.39346 | 152 ft | 88 kts | 21° |
| 2026-05-06 19:30 | 37.75246 | -122.39143 | 161 ft | 75 kts | 351° |
| 2026-05-06 19:30 | 37.75752 | -122.39203 | 161 ft | 74 kts | 356° |
| 2026-05-06 19:30 | 37.76262 | -122.39264 | 185 ft | 73 kts | 359° |
| 2026-05-06 19:31 | 37.76724 | -122.39544 | 163 ft | 78 kts | 314° |
| 2026-05-06 19:31 | 37.77217 | -122.39832 | 182 ft | 70 kts | 324° |
| 2026-05-06 19:31 | 37.78035 | -122.39871 | 112 ft | 73 kts | 44° |
| 2026-05-06 19:32 | 37.78375 | -122.39436 | 217 ft | 69 kts | 44° |
| 2026-05-06 19:32 | 37.78680 | -122.38973 | 282 ft | 71 kts | 39° |
| 2026-05-06 19:32 | 37.78964 | -122.38852 | 398 ft | 16 kts | 274° |
| 2026-05-06 19:32 | 37.79168 | -122.39069 | 243 ft | 71 kts | 315° |
| 2026-05-06 19:33 | 37.79579 | -122.39414 | 606 ft | 42 kts | 296° |
| 2026-05-06 19:33 | 37.79562 | -122.39603 | 906 ft | 30 kts | 257° |
| 2026-05-06 19:33 | 37.79340 | -122.39770 | 1021 ft | 49 kts | 217° |
| 2026-05-06 19:33 | 37.79141 | -122.40054 | 1226 ft | 40 kts | 264° |
| 2026-05-06 19:34 | 37.79158 | -122.40431 | 1306 ft | 48 kts | 322° |
| 2026-05-06 19:34 | 37.79273 | -122.40401 | 1228 ft | 30 kts | 72° |
| 2026-05-06 19:34 | 37.79229 | -122.40131 | 840 ft | 12 kts | 274° |
| 2026-05-06 19:34 | 37.79182 | -122.40306 | 726 ft | 25 kts | 269° |
| 2026-05-06 19:35 | 37.79117 | -122.40393 | 946 ft | 47 kts | 345° |
| 2026-05-06 19:35 | 37.79410 | -122.40393 | 1059 ft | 15 kts | 204° |
| 2026-05-06 19:35 | 37.79278 | -122.40344 | 977 ft | 15 kts | 190° |
| 2026-05-06 19:35 | 37.79191 | -122.40343 | 931 ft | 9 kts | 290° |
| 2026-05-06 19:36 | 37.79212 | -122.40348 | 867 ft | 5 kts | 300° |
| 2026-05-06 19:36 | 37.79197 | -122.40338 | 859 ft | 10 kts | 299° |
| 2026-05-06 19:36 | 37.79216 | -122.40383 | 938 ft | 9 kts | 92° |
| 2026-05-06 19:36 | 37.79388 | -122.40248 | 1010 ft | 7 kts | 200° |
| 2026-05-06 19:37 | 37.79270 | -122.40335 | 895 ft | 19 kts | 201° |
| 2026-05-06 19:37 | 37.79215 | -122.40370 | 853 ft | 8 kts | 207° |
| 2026-05-06 19:37 | 37.79213 | -122.40366 | 837 ft | 0 kts | 209° |
| 2026-05-06 19:38 | 37.79196 | -122.40371 | 889 ft | 9 kts | 211° |
| 2026-05-06 19:38 | 37.78979 | -122.40688 | 750 ft | 82 kts | 243° |
| 2026-05-06 19:39 | 37.78644 | -122.41461 | 589 ft | 109 kts | 242° |
| 2026-05-06 19:39 | 37.78251 | -122.42309 | 647 ft | 110 kts | 242° |
| 2026-05-06 19:39 | 37.77818 | -122.43047 | 634 ft | 103 kts | 228° |
| 2026-05-06 19:39 | 37.77204 | -122.43597 | 554 ft | 113 kts | 214° |
| 2026-05-06 19:40 | 37.76538 | -122.43993 | 644 ft | 103 kts | 214° |
| 2026-05-06 19:40 | 37.75933 | -122.44439 | 960 ft | 97 kts | 218° |
| 2026-05-06 19:40 | 37.75434 | -122.44869 | 1210 ft | 90 kts | 224° |
| 2026-05-06 19:40 | 37.75239 | -122.45450 | 1157 ft | 80 kts | 334° |
| 2026-05-06 19:41 | 37.75692 | -122.45564 | 1456 ft | 43 kts | 318° |
| 2026-05-06 19:41 | 37.75621 | -122.45556 | 1659 ft | 54 kts | 104° |
| 2026-05-06 19:41 | 37.75737 | -122.45280 | 1815 ft | 49 kts | 357° |
| 2026-05-06 19:41 | 37.76074 | -122.45549 | 1547 ft | 64 kts | 316° |
| 2026-05-06 19:42 | 37.76384 | -122.46018 | 1043 ft | 75 kts | 316° |
| 2026-05-06 19:42 | 37.76826 | -122.46437 | 571 ft | 80 kts | 318° |
| 2026-05-06 19:42 | 37.77102 | -122.46833 | 660 ft | 50 kts | 290° |
| 2026-05-06 19:42 | 37.77432 | -122.47169 | 460 ft | 88 kts | 358° |
| 2026-05-06 19:43 | 37.78038 | -122.47150 | 439 ft | 85 kts | 354° |
| 2026-05-06 19:43 | 37.78675 | -122.47219 | 396 ft | 88 kts | 355° |
| 2026-05-06 19:43 | 37.79220 | -122.46959 | 496 ft | 66 kts | 358° |
| 2026-05-06 19:43 | 37.79667 | -122.46930 | 509 ft | 75 kts | 3° |
| 2026-05-06 19:44 | 37.80223 | -122.46956 | 428 ft | 78 kts | 344° |
| 2026-05-06 19:44 | 37.80572 | -122.47396 | 457 ft | 73 kts | 314° |
| 2026-05-06 19:44 | 37.80988 | -122.47825 | 333 ft | 82 kts | 329° |
| 2026-05-06 19:44 | 37.81489 | -122.48107 | 355 ft | 67 kts | 35° |
| 2026-05-06 19:45 | 37.81788 | -122.48179 | 326 ft | 15 kts | 141° |
| 2026-05-06 19:45 | 37.81737 | -122.48213 | 320 ft | 12 kts | 141° |
| 2026-05-06 19:45 | 37.81699 | -122.48229 | 320 ft | 1 kts | 35° |
| 2026-05-06 19:45 | 37.81806 | -122.48134 | 327 ft | 42 kts | 38° |
| 2026-05-06 19:46 | 37.82027 | -122.47929 | 334 ft | 35 kts | 99° |
| 2026-05-06 19:46 | 37.82190 | -122.47826 | 391 ft | 20 kts | 112° |
| 2026-05-06 19:46 | 37.82387 | -122.47648 | 379 ft | 42 kts | 334° |
| 2026-05-06 19:46 | 37.82500 | -122.47510 | 360 ft | 13 kts | 219° |
| 2026-05-06 19:47 | 37.82475 | -122.47477 | 400 ft | 29 kts | 337° |
| 2026-05-06 19:47 | 37.83007 | -122.47658 | 286 ft | 101 kts | 349° |
| 2026-05-06 19:47 | 37.83675 | -122.47712 | 403 ft | 92 kts | 2° |
| 2026-05-06 19:47 | 37.84276 | -122.47605 | 576 ft | 83 kts | 13° |
| 2026-05-06 19:48 | 37.84827 | -122.47638 | 662 ft | 79 kts | 329° |
| 2026-05-06 19:48 | 37.84861 | -122.48096 | 719 ft | 71 kts | 222° |
| 2026-05-06 19:48 | 37.84369 | -122.48246 | 811 ft | 86 kts | 188° |
| 2026-05-06 19:48 | 37.83824 | -122.48545 | 683 ft | 88 kts | 189° |
| 2026-05-06 19:49 | 37.83263 | -122.48142 | 357 ft | 104 kts | 139° |
| 2026-05-06 19:49 | 37.82678 | -122.47938 | 300 ft | 87 kts | 180° |
| 2026-05-06 19:49 | 37.82059 | -122.47871 | 285 ft | 87 kts | 181° |
| 2026-05-06 19:49 | 37.81473 | -122.47799 | 280 ft | 88 kts | 180° |
| 2026-05-06 19:50 | 37.81015 | -122.47872 | 294 ft | 58 kts | 273° |
| 2026-05-06 19:50 | 37.81437 | -122.47852 | 81 ft | 74 kts | 19° |
| 2026-05-06 19:50 | 37.81802 | -122.47411 | 128 ft | 73 kts | 63° |
| 2026-05-06 19:50 | 37.81488 | -122.47300 | 303 ft | 74 kts | 243° |
| 2026-05-06 19:51 | 37.81102 | -122.47536 | 449 ft | 67 kts | 215° |
| 2026-05-06 19:51 | 37.80599 | -122.47447 | 320 ft | 86 kts | 150° |
| 2026-05-06 19:51 | 37.80266 | -122.46854 | 239 ft | 84 kts | 105° |
| 2026-05-06 19:51 | 37.80137 | -122.46239 | 375 ft | 36 kts | 113° |
| 2026-05-06 19:52 | 37.80055 | -122.45895 | 446 ft | 53 kts | 103° |
| 2026-05-06 19:52 | 37.80123 | -122.45373 | 455 ft | 64 kts | 45° |
| 2026-05-06 19:52 | 37.80466 | -122.45076 | 465 ft | 57 kts | 89° |
| 2026-05-06 19:52 | 37.80656 | -122.44946 | 433 ft | 3 kts | 165° |
| 2026-05-06 19:53 | 37.80651 | -122.44946 | 195 ft | 1 kts | 166° |
| 2026-05-06 19:53 | 37.80669 | -122.44955 | 201 ft | 3 kts | 165° |
| 2026-05-06 19:53 | 37.80674 | -122.44957 | 179 ft | 0 kts | 166° |
| 2026-05-06 19:53 | 37.80666 | -122.44954 | 169 ft | 8 kts | 165° |
| 2026-05-06 19:54 | 37.80526 | -122.44906 | 175 ft | 16 kts | 165° |
| 2026-05-06 19:54 | 37.80479 | -122.44886 | 162 ft | 17 kts | 164° |
| 2026-05-06 19:54 | 37.80434 | -122.44834 | 160 ft | 13 kts | 162° |
| 2026-05-06 19:54 | 37.80361 | -122.44789 | 160 ft | 4 kts | 152° |
| 2026-05-06 19:55 | 37.80312 | -122.44746 | 163 ft | 4 kts | 270° |
| 2026-05-06 19:55 | 37.80328 | -122.44734 | 162 ft | 2 kts | 276° |
| 2026-05-06 19:55 | 37.80338 | -122.44733 | 163 ft | 1 kts | 276° |
| 2026-05-06 19:55 | 37.80360 | -122.44956 | 174 ft | 27 kts | 213° |
| 2026-05-06 19:56 | 37.80306 | -122.45120 | 169 ft | 33 kts | 154° |
| 2026-05-06 19:56 | 37.80178 | -122.45222 | 157 ft | 10 kts | 51° |
| 2026-05-06 19:56 | 37.80214 | -122.45296 | 161 ft | 7 kts | 84° |
| 2026-05-06 19:56 | 37.80231 | -122.45294 | 159 ft | 1 kts | 160° |
| 2026-05-06 19:57 | 37.80230 | -122.45297 | 162 ft | 0 kts | 161° |
| 2026-05-06 20:00 | 37.80153 | -122.45261 | 163 ft | 10 kts | 160° |
| 2026-05-06 20:01 | 37.80118 | -122.45245 | 163 ft | 3 kts | 99° |
| 2026-05-06 20:01 | 37.80117 | -122.45255 | 166 ft | 1 kts | 101° |
| 2026-05-06 20:01 | 37.80108 | -122.45211 | 163 ft | 9 kts | 101° |
| 2026-05-06 20:01 | 37.80099 | -122.45153 | 138 ft | 8 kts | 121° |
| 2026-05-06 20:02 | 37.80051 | -122.45040 | 170 ft | 5 kts | 129° |
| 2026-05-06 20:02 | 37.80040 | -122.45022 | 155 ft | 1 kts | 130° |
| 2026-05-06 20:02 | 37.80039 | -122.45025 | 158 ft | 3 kts | 130° |
| 2026-05-06 20:02 | 37.80006 | -122.44960 | 155 ft | 1 kts | 120° |
| 2026-05-06 20:03 | 37.79992 | -122.44921 | 157 ft | 4 kts | 220° |
| 2026-05-06 20:03 | 37.79995 | -122.44944 | 159 ft | 4 kts | 91° |
| 2026-05-06 20:03 | 37.80002 | -122.44963 | 156 ft | 0 kts | 91° |
| 2026-05-06 20:04 | 37.80003 | -122.44963 | 154 ft | 0 kts | 91° |
| 2026-05-06 20:04 | 37.80003 | -122.44962 | 155 ft | 0 kts | 91° |
| 2026-05-06 20:04 | 37.80003 | -122.44961 | 155 ft | 0 kts | 91° |
| 2026-05-06 20:05 | 37.80004 | -122.44960 | 155 ft | 0 kts | 91° |
| 2026-05-06 20:05 | 37.80004 | -122.44959 | 157 ft | 0 kts | 91° |
| 2026-05-06 20:06 | 37.80003 | -122.44959 | 159 ft | 0 kts | 91° |
| 2026-05-06 20:06 | 37.80004 | -122.44959 | 154 ft | 0 kts | 91° |
| 2026-05-06 20:06 | 37.80003 | -122.44959 | 158 ft | 0 kts | 91° |
| 2026-05-06 20:07 | 37.80002 | -122.44958 | 157 ft | 0 kts | 91° |
| 2026-05-06 20:07 | 37.80003 | -122.44958 | 153 ft | 0 kts | 91° |
| 2026-05-06 20:07 | 37.79995 | -122.44937 | 263 ft | 22 kts | 93° |
| 2026-05-06 20:07 | 37.79951 | -122.44279 | 290 ft | 106 kts | 96° |
| 2026-05-06 20:08 | 37.79897 | -122.43303 | 303 ft | 113 kts | 94° |
| 2026-05-06 20:08 | 37.79840 | -122.42345 | 379 ft | 104 kts | 110° |
| 2026-05-06 20:08 | 37.79630 | -122.41518 | 524 ft | 97 kts | 102° |
| 2026-05-06 20:08 | 37.79487 | -122.40655 | 465 ft | 97 kts | 128° |
| 2026-05-06 20:09 | 37.79114 | -122.40101 | 532 ft | 73 kts | 148° |
| 2026-05-06 20:09 | 37.78773 | -122.39669 | 507 ft | 65 kts | 147° |
| 2026-05-06 20:09 | 37.78342 | -122.39545 | 407 ft | 56 kts | 194° |
| 2026-05-06 20:09 | 37.77988 | -122.39564 | 505 ft | 62 kts | 186° |
| 2026-05-06 20:10 | 37.77423 | -122.39557 | 414 ft | 95 kts | 186° |
| 2026-05-06 20:10 | 37.76747 | -122.39533 | 402 ft | 99 kts | 181° |
| 2026-05-06 20:10 | 37.76049 | -122.39484 | 412 ft | 101 kts | 182° |
| 2026-05-06 20:10 | 37.75335 | -122.39410 | 456 ft | 104 kts | 185° |
| 2026-05-06 20:11 | 37.74608 | -122.39312 | 475 ft | 106 kts | 181° |
| 2026-05-06 20:11 | 37.73876 | -122.39191 | 471 ft | 106 kts | 180° |
| 2026-05-06 20:11 | 37.73149 | -122.39044 | 430 ft | 106 kts | 176° |
| 2026-05-06 20:11 | 37.72423 | -122.38873 | 392 ft | 107 kts | 174° |
| 2026-05-06 20:12 | 37.71697 | -122.38675 | 349 ft | 107 kts | 175° |
| 2026-05-06 20:12 | 37.70971 | -122.38455 | 288 ft | 108 kts | 172° |
| 2026-05-06 20:12 | 37.70234 | -122.38341 | 236 ft | 111 kts | 189° |
| 2026-05-06 20:12 | 37.69454 | -122.38324 | 154 ft | 114 kts | 185° |
| 2026-05-06 20:13 | 37.68674 | -122.38231 | 153 ft | 111 kts | 181° |
| 2026-05-06 20:13 | 37.67914 | -122.38064 | 154 ft | 111 kts | 175° |
| 2026-05-06 20:13 | 37.67169 | -122.37823 | 162 ft | 110 kts | 171° |
| 2026-05-06 20:13 | 37.66433 | -122.37687 | 170 ft | 105 kts | 191° |
| 2026-05-06 20:14 | 37.65748 | -122.37699 | 260 ft | 92 kts | 191° |
| 2026-05-06 20:14 | 37.65139 | -122.37754 | 327 ft | 83 kts | 197° |
| 2026-05-06 20:14 | 37.64600 | -122.37854 | 403 ft | 76 kts | 201° |
| 2026-05-06 20:14 | 37.64167 | -122.38099 | 460 ft | 62 kts | 231° |
| 2026-05-06 20:15 | 37.63919 | -122.38470 | 437 ft | 49 kts | 246° |
| 2026-05-06 20:15 | 37.63766 | -122.38833 | 350 ft | 47 kts | 234° |
| 2026-05-06 20:15 | 37.63622 | -122.39135 | 365 ft | 31 kts | 192° |
| 2026-05-06 20:15 | 37.63558 | -122.39175 | 336 ft | 1 kts | 171° |
| 2026-05-06 20:16 | 37.63539 | -122.39187 | 293 ft | 11 kts | 171° |
| 2026-05-06 20:16 | 37.63326 | -122.39189 | 107 ft | 40 kts | 191° |
| 2026-05-06 20:16 | 37.63126 | -122.39180 | 124 ft | 10 kts | 281° |
| 2026-05-06 20:16 | 37.63073 | -122.39070 | 116 ft | 12 kts | 295° |
| 2026-05-06 20:17 | 37.63068 | -122.39054 | 117 ft | 7 kts | 296° |
| 2026-05-06 20:17 | 37.63108 | -122.39144 | 82 ft | 14 kts | 296° |
| 2026-05-06 20:17 | 37.63130 | -122.39162 | 73 ft | 15 kts | 294° |
| 2026-05-06 20:17 | 37.63125 | -122.39199 | 33 ft | 22 kts | 82° |
| 2026-05-06 20:18 | 37.63145 | -122.39219 | 58 ft | 26 kts | 155° |
| 2026-05-06 20:18 | 37.63076 | -122.39028 | 259 ft | 27 kts | 241° |
| 2026-05-06 20:18 | 37.63137 | -122.39384 | 314 ft | 52 kts | 323° |
| 2026-05-06 20:18 | 37.63453 | -122.39068 | 392 ft | 48 kts | 17° |
| 2026-05-06 20:19 | 37.63541 | -122.39050 | 72 ft | 48 kts | 248° |
| 2026-05-06 20:19 | 37.63413 | -122.39127 | 102 ft | 24 kts | 181° |
| 2026-05-06 20:19 | 37.63163 | -122.39064 | 239 ft | 35 kts | 217° |
| 2026-05-06 20:19 | 37.63062 | -122.39192 | 199 ft | 28 kts | 302° |
| 2026-05-06 20:20 | 37.63274 | -122.39185 | 244 ft | 43 kts | 48° |
| 2026-05-06 20:20 | 37.63236 | -122.38666 | 157 ft | 42 kts | 33° |
| 2026-05-06 20:20 | 37.63401 | -122.38721 | 114 ft | 40 kts | 308° |
| 2026-05-06 20:20 | 37.63402 | -122.39003 | 72 ft | 28 kts | 264° |
| 2026-05-06 20:21 | 37.63310 | -122.39182 | 60 ft | 21 kts | 170° |
| 2026-05-06 20:21 | 37.63190 | -122.39173 | 34 ft | 7 kts | 168° |
| 2026-05-06 20:21 | 37.63151 | -122.39188 | 27 ft | 4 kts | 167° |
| 2026-05-06 20:21 | 37.63135 | -122.39174 | 20 ft | 8 kts | 112° |
| 2026-05-06 20:22 | 37.63054 | -122.38680 | 191 ft | 88 kts | 104° |
| 2026-05-06 20:22 | 37.63183 | -122.38194 | 249 ft | 66 kts | 312° |
| 2026-05-06 20:22 | 37.63233 | -122.38617 | 198 ft | 59 kts | 267° |
| 2026-05-06 20:22 | 37.63161 | -122.39012 | 65 ft | 31 kts | 261° |
| 2026-05-06 20:23 | 37.63133 | -122.39143 | 24 ft | 4 kts | 277° |
| 2026-05-06 20:23 | 37.63130 | -122.39176 | 25 ft | 7 kts | 277° |
| 2026-05-06 20:23 | 37.63129 | -122.39187 | 18 ft | 0 kts | 275° |
| 2026-05-06 20:24 | 37.63096 | -122.39193 | 101 ft | 29 kts | 152° |
| 2026-05-06 20:25 | 37.62851 | -122.38776 | 115 ft | 82 kts | 126° |
| 2026-05-06 20:25 | 37.62486 | -122.38102 | 140 ft | 80 kts | 131° |
| 2026-05-06 20:25 | 37.62290 | -122.37683 | 192 ft | 44 kts | 135° |
| 2026-05-06 20:25 | 37.62069 | -122.37212 | 108 ft | 84 kts | 123° |
| 2026-05-06 20:26 | 37.61753 | -122.36578 | 109 ft | 76 kts | 140° |
| 2026-05-06 20:26 | 37.61414 | -122.36169 | 123 ft | 53 kts | 150° |
| 2026-05-06 20:26 | 37.61338 | -122.35821 | 107 ft | 30 kts | 289° |
| 2026-05-06 20:26 | 37.61388 | -122.35862 | 108 ft | 26 kts | 295° |
| 2026-05-06 20:27 | 37.61478 | -122.36199 | 98 ft | 55 kts | 292° |
| 2026-05-06 20:27 | 37.61676 | -122.36720 | 104 ft | 71 kts | 295° |
| 2026-05-06 20:27 | 37.61903 | -122.37245 | 105 ft | 65 kts | 302° |
| 2026-05-06 20:27 | 37.62129 | -122.37766 | 99 ft | 70 kts | 298° |
| 2026-05-06 20:28 | 37.62323 | -122.38208 | 106 ft | 48 kts | 299° |
| 2026-05-06 20:28 | 37.62464 | -122.38614 | 98 ft | 50 kts | 278° |
| 2026-05-06 20:28 | 37.62525 | -122.38989 | 106 ft | 37 kts | 284° |
| 2026-05-06 20:28 | 37.62540 | -122.39221 | 101 ft | 9 kts | 140° |
| 2026-05-06 20:29 | 37.62474 | -122.39091 | 93 ft | 39 kts | 147° |
| 2026-05-06 20:29 | 37.62301 | -122.38816 | 104 ft | 29 kts | 257° |
| 2026-05-06 20:29 | 37.62280 | -122.38685 | 92 ft | 4 kts | 299° |
| 2026-05-06 20:29 | 37.62281 | -122.38680 | 98 ft | 1 kts | 152° |
| 2026-05-06 20:30 | 37.62224 | -122.38640 | 103 ft | 21 kts | 147° |
| 2026-05-06 20:30 | 37.62018 | -122.38518 | 97 ft | 20 kts | 0° |
| 2026-05-06 20:30 | 37.62126 | -122.38627 | 97 ft | 47 kts | 242° |
| 2026-05-06 20:31 | 37.62295 | -122.38806 | 106 ft | 72 kts | 358° |
| 2026-05-06 20:31 | 37.62745 | -122.38783 | 145 ft | 60 kts | 358° |
| 2026-05-06 20:31 | 37.63053 | -122.38678 | 171 ft | 31 kts | 2° |
| 2026-05-06 20:31 | 37.63165 | -122.38645 | 136 ft | 10 kts | 279° |
| 2026-05-06 20:32 | 37.63150 | -122.38852 | 122 ft | 33 kts | 276° |
| 2026-05-06 20:32 | 37.63133 | -122.39062 | 70 ft | 16 kts | 285° |
| 2026-05-06 20:32 | 37.63129 | -122.39169 | 32 ft | 7 kts | 283° |
| 2026-05-06 20:32 | 37.63130 | -122.39204 | 43 ft | 3 kts | 79° |
| 2026-05-06 20:33 | 37.63131 | -122.39197 | 20 ft | 0 kts | 104° |
| 2026-05-06 20:33 | 37.63129 | -122.39193 | 19 ft | 0 kts | 84° |